Terminal Aerodrome Forecast
Issued by NWS

Home | Current Version | Previous Version | Text Only | Print | Product List | Glossary On
Versions: 1 2 3 4 5 6 7 8 9 10 11 12 13 14 15 16 17 18
000
FTUS45 KRIW 280500
TAFRKS
TAF
KRKS 280525Z 2806/2906 24014G20KT P6SM SCT025 BKN060
     FM280900 24014G22KT 5SM -SN SCT015 BKN030
     FM281800 25020G30KT 3SM -SN BLSN SCT012 OVC020
     FM290100 26012G20KT 5SM -SN OVC025=

USA.gov is the U.S. government's official web portal to all federal, state and local government web resources and services.